createdAt,value
2018-05-21T00:02:07.801Z,51.50
2018-05-21T00:04:34.016Z,51.40
2018-05-21T00:07:00.238Z,51.90
2018-05-21T00:09:26.451Z,52.20
2018-05-21T00:11:53.460Z,51.80
2018-05-21T00:14:19.693Z,51.80
2018-05-21T00:16:45.974Z,51.80
2018-05-21T00:19:12.174Z,51.70
2018-05-21T00:21:39.141Z,52.40
2018-05-21T00:24:05.360Z,52.40
2018-05-21T00:26:32.344Z,52.70
2018-05-21T00:28:58.572Z,52.60
2018-05-21T00:31:24.778Z,52.40
2018-05-21T00:33:51.033Z,52.10
2018-05-21T00:36:17.249Z,51.70
2018-05-21T00:38:43.430Z,51.00
2018-05-21T00:41:10.380Z,50.50
2018-05-21T00:43:37.325Z,50.50
2018-05-21T00:46:04.275Z,50.70
2018-05-21T00:48:31.243Z,50.60
2018-05-21T00:50:57.448Z,50.50
2018-05-21T00:53:23.658Z,50.70
2018-05-21T00:55:50.605Z,51.20
2018-05-21T00:58:17.561Z,50.80
2018-05-21T01:00:44.513Z,50.80
2018-05-21T01:03:10.743Z,50.80
2018-05-21T01:05:37.882Z,50.50
2018-05-21T01:08:04.839Z,50.80
2018-05-21T01:10:31.052Z,50.70
2018-05-21T01:12:58.010Z,51.00
2018-05-21T01:15:24.233Z,51.00
2018-05-21T01:17:50.484Z,51.10
2018-05-21T01:20:16.718Z,51.20
2018-05-21T01:22:42.917Z,51.50
2018-05-21T01:25:09.134Z,51.60
2018-05-21T01:27:36.107Z,51.80
2018-05-21T01:30:02.401Z,51.80
2018-05-21T01:32:29.346Z,51.50
2018-05-21T01:34:56.309Z,51.90
2018-05-21T01:37:22.540Z,51.80
2018-05-21T01:39:48.741Z,52.30
2018-05-21T01:42:15.716Z,52.50
2018-05-21T01:44:41.945Z,52.50
2018-05-21T01:47:08.166Z,52.40
2018-05-21T01:49:34.360Z,52.10
2018-05-21T01:52:00.588Z,52.80
2018-05-21T01:54:26.816Z,53.20
2018-05-21T01:56:53.766Z,53.10
2018-05-21T01:59:20.713Z,52.90
2018-05-21T02:01:47.682Z,52.90
2018-05-21T02:04:13.911Z,52.90
2018-05-21T02:06:40.170Z,53.00
2018-05-21T02:09:06.472Z,53.50
2018-05-21T02:11:32.700Z,53.10
2018-05-21T02:13:58.901Z,53.60
2018-05-21T02:16:25.870Z,53.40
2018-05-21T02:18:52.183Z,53.40
2018-05-21T02:21:19.175Z,53.30
2018-05-21T02:23:45.364Z,53.30
2018-05-21T02:26:11.583Z,53.40
2018-05-21T02:28:38.567Z,53.40
2018-05-21T02:31:04.795Z,53.20
2018-05-21T02:33:31.060Z,53.40
2018-05-21T02:35:57.336Z,53.80
2018-05-21T02:38:24.272Z,53.50
2018-05-21T02:40:50.486Z,53.50
2018-05-21T02:43:16.715Z,54.00
2018-05-21T02:45:42.927Z,54.00
2018-05-21T02:48:09.893Z,54.10
2018-05-21T02:50:36.138Z,54.10
2018-05-21T02:53:02.514Z,54.20
2018-05-21T02:55:28.731Z,54.20
2018-05-21T02:57:54.947Z,54.30
2018-05-21T03:00:21.156Z,53.50
2018-05-21T03:02:47.410Z,53.70
2018-05-21T03:05:13.629Z,53.70
2018-05-21T03:07:39.810Z,53.40
2018-05-21T03:10:06.762Z,53.40
2018-05-21T03:12:32.946Z,53.40
2018-05-21T03:15:10.833Z,53.30
2018-05-21T03:17:37.041Z,53.20
2018-05-21T03:20:03.269Z,53.60
2018-05-21T03:22:29.497Z,53.70
2018-05-21T03:24:55.738Z,54.10
2018-05-21T03:27:21.971Z,54.10
2018-05-21T03:29:48.182Z,54.60
2018-05-21T03:32:14.414Z,54.10
2018-05-21T03:34:40.707Z,54.40
2018-05-21T03:37:06.854Z,54.40
2018-05-21T03:39:33.051Z,54.80
2018-05-21T03:42:00.000Z,54.70
2018-05-21T03:44:26.950Z,54.90
2018-05-21T03:46:53.182Z,54.90
2018-05-21T03:49:19.395Z,54.70
2018-05-21T03:51:45.602Z,55.20
2018-05-21T03:54:11.875Z,55.30
2018-05-21T03:56:38.057Z,55.80
2018-05-21T03:59:16.581Z,55.00
2018-05-21T04:01:54.985Z,54.90
2018-05-21T04:04:21.243Z,55.30
2018-05-21T04:06:48.163Z,54.90
2018-05-21T04:09:15.106Z,55.30
2018-05-21T04:11:41.365Z,55.20
2018-05-21T04:14:07.566Z,55.40
2018-05-21T04:16:33.767Z,55.40
2018-05-21T04:18:59.965Z,55.50
2018-05-21T04:21:26.195Z,55.70
2018-05-21T04:23:52.402Z,55.10
2018-05-21T04:26:18.645Z,54.70
2018-05-21T04:28:44.858Z,54.60
2018-05-21T04:31:11.117Z,54.70
2018-05-21T04:33:37.346Z,54.30
2018-05-21T04:36:03.599Z,54.30
2018-05-21T04:38:29.823Z,53.80
2018-05-21T04:40:56.027Z,53.90
2018-05-21T04:43:22.244Z,53.20
2018-05-21T04:45:48.467Z,52.80
2018-05-21T04:48:14.677Z,53.00
2018-05-21T04:50:42.692Z,53.20
2018-05-21T04:53:12.268Z,52.70
2018-05-21T04:55:39.616Z,52.80
2018-05-21T04:58:26.251Z,53.00
2018-05-21T05:00:54.989Z,52.70
2018-05-21T05:03:24.296Z,52.30
2018-05-21T05:05:52.503Z,52.30
2018-05-21T05:08:24.229Z,52.80
2018-05-21T05:11:00.478Z,52.40
2018-05-21T05:13:36.644Z,51.90
2018-05-21T05:16:05.807Z,51.90
2018-05-21T05:18:35.109Z,51.30
2018-05-21T05:21:10.481Z,51.30
2018-05-21T05:23:40.429Z,51.60
2018-05-21T05:26:09.354Z,51.20
2018-05-21T05:28:37.461Z,51.80
2018-05-21T05:31:07.613Z,51.80
2018-05-21T05:36:14.014Z,52.20
2018-05-21T05:38:53.147Z,51.70
2018-05-21T05:41:26.954Z,51.80
2018-05-21T05:43:55.790Z,51.50
2018-05-21T05:46:22.264Z,51.00
2018-05-21T05:48:52.095Z,50.90
2018-05-21T05:51:29.855Z,50.90
2018-05-21T05:53:59.601Z,50.50
2018-05-21T05:56:29.932Z,50.50
2018-05-21T05:59:00.918Z,50.30
2018-05-21T06:01:29.736Z,50.20
2018-05-21T06:04:00.041Z,50.20
2018-05-21T06:06:27.994Z,50.30
2018-05-21T06:08:59.761Z,50.20
2018-05-21T06:16:44.502Z,49.60
2018-05-21T06:19:18.618Z,50.00
2018-05-21T06:21:55.838Z,49.50
2018-05-21T06:24:25.400Z,49.20
2018-05-21T06:26:54.909Z,49.40
2018-05-21T06:29:23.051Z,48.10
2018-05-21T06:31:53.833Z,48.00
2018-05-21T06:34:26.872Z,48.10
2018-05-21T06:36:58.108Z,48.10
2018-05-21T06:39:27.247Z,48.00
2018-05-21T06:41:56.486Z,47.60
2018-05-21T06:44:27.135Z,47.30
2018-05-21T06:46:54.634Z,47.10
2018-05-21T06:49:26.391Z,46.30
2018-05-21T06:51:56.381Z,46.50
2018-05-21T06:54:22.614Z,46.70
2018-05-21T06:57:09.122Z,46.50
2018-05-21T06:59:35.321Z,46.80
2018-05-21T07:02:01.541Z,46.80
2018-05-21T07:04:27.791Z,46.90
2018-05-21T07:06:54.010Z,46.70
2018-05-21T07:09:20.274Z,46.60
2018-05-21T07:11:46.470Z,46.00
2018-05-21T07:14:12.714Z,45.90
2018-05-21T07:16:38.949Z,45.70
2018-05-21T07:19:05.168Z,45.60
2018-05-21T07:21:31.404Z,45.30
2018-05-21T07:23:57.677Z,45.00
2018-05-21T07:26:23.881Z,44.70
2018-05-21T07:28:50.869Z,42.20
2018-05-21T07:31:17.097Z,42.20
2018-05-21T07:33:43.316Z,39.50
2018-05-21T07:36:09.530Z,35.90
2018-05-21T07:38:35.765Z,33.20
2018-05-21T07:41:02.037Z,30.90
2018-05-21T07:43:28.275Z,28.60
2018-05-21T07:45:54.501Z,26.80
2018-05-21T07:48:20.726Z,25.00
2018-05-21T07:50:47.745Z,24.10
2018-05-21T07:53:13.937Z,24.10
2018-05-21T07:55:40.881Z,23.20
2018-05-21T07:58:07.873Z,23.70
2018-05-21T08:00:34.099Z,24.10
2018-05-21T08:03:00.334Z,22.80
2018-05-21T08:05:26.548Z,22.40
2018-05-21T08:07:52.785Z,22.10
2018-05-21T08:10:19.012Z,22.20
2018-05-21T08:12:45.985Z,24.30
2018-05-21T08:15:12.190Z,24.30
2018-05-21T08:17:38.415Z,23.40
2018-05-21T08:20:04.662Z,23.60
2018-05-21T08:22:30.870Z,23.10
2018-05-21T08:24:57.073Z,22.20
2018-05-21T08:27:23.380Z,21.80
2018-05-21T08:29:50.366Z,21.00
2018-05-21T08:32:16.604Z,20.90
2018-05-21T08:34:43.629Z,20.60
2018-05-21T08:37:09.857Z,21.40
2018-05-21T08:39:36.229Z,22.00
2018-05-21T08:42:02.461Z,21.90
2018-05-21T08:44:29.499Z,20.40
2018-05-21T08:46:55.739Z,20.40
2018-05-21T08:49:22.769Z,21.10
2018-05-21T08:51:49.003Z,21.00
2018-05-21T08:54:15.206Z,20.60
2018-05-21T08:56:41.629Z,20.50
2018-05-21T08:59:07.767Z,20.60
2018-05-21T09:01:34.057Z,20.70
2018-05-21T09:04:00.281Z,20.40
2018-05-21T09:06:26.535Z,19.80
2018-05-21T09:08:52.767Z,19.50
2018-05-21T09:11:19.786Z,19.10
2018-05-21T09:13:46.157Z,19.10
2018-05-21T09:16:13.131Z,19.10
2018-05-21T09:18:40.213Z,18.40
2018-05-21T09:21:06.467Z,18.40
2018-05-21T09:23:32.689Z,18.50
2018-05-21T09:25:58.978Z,18.50
2018-05-21T09:28:25.168Z,17.90
2018-05-21T09:30:51.394Z,18.10
2018-05-21T09:33:17.618Z,17.80
2018-05-21T09:35:43.888Z,17.50
2018-05-21T09:38:10.851Z,17.60
2018-05-21T09:40:37.071Z,17.60
2018-05-21T09:43:03.333Z,16.80
2018-05-21T09:45:29.552Z,17.20
2018-05-21T09:47:55.816Z,17.60
2018-05-21T09:50:23.593Z,18.60
2018-05-21T09:52:50.538Z,18.90
2018-05-21T09:55:17.550Z,18.30
2018-05-21T09:57:43.793Z,18.20
2018-05-21T10:00:10.067Z,18.00
2018-05-21T10:02:36.329Z,18.00
2018-05-21T10:05:02.589Z,18.30
2018-05-21T10:07:28.824Z,19.20
2018-05-21T10:09:55.801Z,18.10
2018-05-21T10:12:22.001Z,17.70
2018-05-21T10:14:49.027Z,17.20
2018-05-21T10:17:15.257Z,17.20
2018-05-21T10:19:41.485Z,18.10
2018-05-21T10:22:07.715Z,17.80
2018-05-21T10:24:33.966Z,17.80
2018-05-21T10:27:00.206Z,17.30
2018-05-21T10:29:26.444Z,18.20
2018-05-21T10:31:52.737Z,18.40
2018-05-21T10:34:19.729Z,19.10
2018-05-21T10:36:45.988Z,19.10
2018-05-21T10:39:12.272Z,20.00
2018-05-21T10:41:38.457Z,20.70
2018-05-21T10:44:04.703Z,20.40
2018-05-21T10:46:31.666Z,20.30
2018-05-21T10:48:57.902Z,20.30
2018-05-21T10:51:24.215Z,20.80
2018-05-21T10:53:50.404Z,21.10
2018-05-21T10:56:17.553Z,21.90
2018-05-21T10:58:44.454Z,21.80
2018-05-21T11:01:10.719Z,21.80
2018-05-21T11:03:36.954Z,21.50
2018-05-21T11:06:03.190Z,21.10
2018-05-21T11:08:31.013Z,20.60
2018-05-21T11:10:57.266Z,20.60
2018-05-21T11:13:23.479Z,21.10
2018-05-21T11:15:49.709Z,22.10
2018-05-21T11:18:15.923Z,23.20
2018-05-21T11:20:42.209Z,23.80
2018-05-21T11:23:09.177Z,23.70
2018-05-21T11:25:35.489Z,23.60
2018-05-21T11:28:02.541Z,23.10
2018-05-21T11:30:29.578Z,23.40
2018-05-21T11:32:55.925Z,23.40
2018-05-21T11:35:22.172Z,23.50
2018-05-21T11:37:48.397Z,23.60
2018-05-21T11:40:14.764Z,24.40
2018-05-21T11:42:41.030Z,24.50
2018-05-21T11:45:08.119Z,22.70
2018-05-21T11:47:35.440Z,22.60
2018-05-21T11:50:01.729Z,22.80
2018-05-21T11:52:34.972Z,22.70
2018-05-21T11:55:01.124Z,23.60
2018-05-21T11:57:27.338Z,24.00
2018-05-21T11:59:53.602Z,24.80
2018-05-21T12:02:19.893Z,24.60
2018-05-21T12:04:46.087Z,24.20
2018-05-21T12:07:12.349Z,25.00
2018-05-21T12:09:38.579Z,25.80
2018-05-21T12:12:04.913Z,26.50
2018-05-21T12:14:31.146Z,26.90
2018-05-21T12:16:57.390Z,27.40
2018-05-21T12:19:23.613Z,27.60
2018-05-21T12:21:49.834Z,27.70
2018-05-21T12:24:16.017Z,26.80
2018-05-21T12:26:43.095Z,26.30
2018-05-21T12:29:09.356Z,26.30
2018-05-21T12:31:35.601Z,23.90
2018-05-21T12:34:01.854Z,23.70
2018-05-21T12:36:28.527Z,24.20
2018-05-21T12:38:54.745Z,23.00
2018-05-21T12:41:20.990Z,23.40
2018-05-21T12:43:47.218Z,23.90
2018-05-21T12:46:13.439Z,24.30
2018-05-21T12:48:40.297Z,24.10
2018-05-21T12:51:06.521Z,23.90
2018-05-21T12:53:32.816Z,24.30
2018-05-21T12:55:59.294Z,24.60
2018-05-21T12:58:25.498Z,24.40
2018-05-21T13:00:51.784Z,24.40
2018-05-21T13:03:18.759Z,24.50
2018-05-21T13:05:45.227Z,24.40
2018-05-21T13:08:11.457Z,24.30
2018-05-21T13:10:37.698Z,24.40
2018-05-21T13:13:04.783Z,24.40
2018-05-21T13:15:31.385Z,24.40
2018-05-21T13:17:57.788Z,23.90
2018-05-21T13:20:24.523Z,24.30
2018-05-21T13:22:50.754Z,24.00
2018-05-21T13:25:16.979Z,23.80
2018-05-21T13:27:43.242Z,24.00
2018-05-21T13:30:10.232Z,24.60
2018-05-21T13:32:36.450Z,24.60
2018-05-21T13:35:02.717Z,24.10
2018-05-21T13:37:28.943Z,24.10
2018-05-21T13:39:55.157Z,23.60
2018-05-21T13:42:21.394Z,23.20
2018-05-21T13:44:47.617Z,23.60
2018-05-21T13:47:13.854Z,23.90
2018-05-21T13:49:40.075Z,24.00
2018-05-21T13:52:06.301Z,23.90
2018-05-21T13:54:32.587Z,24.20
2018-05-21T13:56:58.779Z,24.80
2018-05-21T13:59:25.023Z,25.60
2018-05-21T14:01:52.024Z,24.50
2018-05-21T14:04:18.295Z,24.40
2018-05-21T14:06:45.296Z,24.20
2018-05-21T14:09:11.533Z,24.20
2018-05-21T14:11:37.774Z,23.20
2018-05-21T14:14:04.053Z,24.00
2018-05-21T14:16:30.969Z,24.30
2018-05-21T14:18:58.385Z,25.00
2018-05-21T14:21:24.930Z,25.00
2018-05-21T14:23:51.207Z,25.10
2018-05-21T14:26:18.245Z,25.40
2018-05-21T14:28:44.645Z,25.50
2018-05-21T14:31:10.875Z,25.30
2018-05-21T14:33:37.359Z,25.10
2018-05-21T14:36:03.685Z,25.10
2018-05-21T14:38:29.930Z,24.90
2018-05-21T14:40:56.466Z,25.20
2018-05-21T14:43:23.101Z,25.00
2018-05-21T14:45:49.609Z,25.10
2018-05-21T14:48:15.998Z,25.70
2018-05-21T14:50:42.258Z,25.60
2018-05-21T14:53:09.355Z,27.20
2018-05-21T14:55:35.713Z,27.20
2018-05-21T14:58:03.092Z,27.40
2018-05-21T15:00:29.476Z,27.10
2018-05-21T15:02:55.781Z,24.40
2018-05-21T15:05:22.194Z,25.30
2018-05-21T15:07:48.534Z,25.60
2018-05-21T15:10:15.323Z,26.70
2018-05-21T15:12:41.781Z,26.50
2018-05-21T15:15:08.888Z,24.90
2018-05-21T15:17:35.484Z,24.90
2018-05-21T15:20:01.884Z,24.60
2018-05-21T15:22:28.831Z,24.90
2018-05-21T15:24:55.330Z,25.90
2018-05-21T15:27:22.092Z,26.20
2018-05-21T15:29:49.020Z,25.70
2018-05-21T15:32:15.554Z,26.00
2018-05-21T15:34:41.950Z,26.60
2018-05-21T15:37:08.271Z,26.10
2018-05-21T15:39:34.640Z,25.30
2018-05-21T15:42:01.161Z,25.00
2018-05-21T15:47:00.824Z,24.90
2018-05-21T15:49:27.785Z,25.30
2018-05-21T15:51:55.062Z,26.40
2018-05-21T15:54:21.621Z,26.20
2018-05-21T15:56:48.140Z,26.40
2018-05-21T15:59:14.628Z,26.70
2018-05-21T16:01:41.154Z,27.30
2018-05-21T16:04:07.704Z,27.60
2018-05-21T16:06:35.135Z,27.20
2018-05-21T16:09:02.553Z,27.50
2018-05-21T16:11:28.965Z,27.40
2018-05-21T16:13:56.082Z,27.70
2018-05-21T16:16:22.538Z,27.70
2018-05-21T16:18:48.985Z,27.80
2018-05-21T16:21:15.553Z,28.20
2018-05-21T16:23:42.057Z,28.50
2018-05-21T16:26:10.458Z,28.30
2018-05-21T16:28:36.936Z,28.20
2018-05-21T16:31:03.236Z,28.40
2018-05-21T16:33:29.885Z,28.50
2018-05-21T16:35:56.287Z,28.80
2018-05-21T16:38:23.506Z,28.80
2018-05-21T16:40:51.233Z,29.00
2018-05-21T16:43:17.611Z,28.90
2018-05-21T16:45:44.059Z,29.20
2018-05-21T16:48:10.569Z,29.30
2018-05-21T16:50:37.772Z,29.70
2018-05-21T16:53:04.159Z,29.70
2018-05-21T16:55:31.213Z,29.80
2018-05-21T16:57:58.979Z,29.70
2018-05-21T17:00:25.449Z,30.00
2018-05-21T17:02:52.481Z,29.90
2018-05-21T17:05:19.086Z,29.80
2018-05-21T17:07:45.617Z,30.50
2018-05-21T17:10:12.154Z,30.00
2018-05-21T17:12:38.557Z,30.30
2018-05-21T17:15:05.623Z,30.20
2018-05-21T17:17:42.575Z,30.40
2018-05-21T17:20:09.806Z,30.60
2018-05-21T17:22:36.432Z,30.60
2018-05-21T17:25:02.956Z,30.40
2018-05-21T17:27:31.479Z,30.70
2018-05-21T17:29:57.959Z,30.60
2018-05-21T17:32:24.396Z,30.30
2018-05-21T17:34:50.988Z,30.60
2018-05-21T17:37:17.424Z,30.70
2018-05-21T17:39:44.617Z,31.20
2018-05-21T17:42:11.007Z,31.20
2018-05-21T17:44:37.389Z,31.10
2018-05-21T17:47:03.950Z,30.70
2018-05-21T17:49:30.375Z,31.50
2018-05-21T17:51:56.782Z,31.60
2018-05-21T17:54:23.185Z,31.80
2018-05-21T17:56:49.746Z,31.70
2018-05-21T17:59:16.154Z,32.00
2018-05-21T18:01:42.592Z,32.10
2018-05-21T18:04:08.984Z,32.50
2018-05-21T18:06:35.390Z,32.90
2018-05-21T18:09:01.802Z,32.80
2018-05-21T18:11:28.186Z,33.10
2018-05-21T18:13:54.618Z,33.20
2018-05-21T18:16:20.945Z,33.30
2018-05-21T18:18:47.523Z,34.00
2018-05-21T18:21:13.886Z,33.80
2018-05-21T18:23:40.376Z,33.90
2018-05-21T18:26:06.958Z,33.90
2018-05-21T18:28:33.375Z,34.20
2018-05-21T18:30:59.814Z,34.30
2018-05-21T18:33:26.194Z,34.30
2018-05-21T18:35:52.764Z,34.80
2018-05-21T18:38:19.066Z,34.80
2018-05-21T18:40:45.644Z,34.90
2018-05-21T18:43:11.940Z,35.20
2018-05-21T18:45:38.491Z,35.00
2018-05-21T18:48:04.866Z,34.70
2018-05-21T18:50:31.278Z,35.00
2018-05-21T18:52:57.636Z,35.00
2018-05-21T18:55:23.995Z,35.00
2018-05-21T18:57:51.352Z,35.40
2018-05-21T19:00:17.747Z,35.30
2018-05-21T19:02:44.060Z,35.30
2018-05-21T19:05:10.391Z,35.20
2018-05-21T19:07:37.025Z,35.30
2018-05-21T19:10:03.454Z,35.50
2018-05-21T19:12:29.946Z,35.80
2018-05-21T19:14:56.339Z,36.00
2018-05-21T19:17:22.687Z,35.70
2018-05-21T19:19:49.039Z,35.90
2018-05-21T19:22:15.419Z,36.00
2018-05-21T19:24:41.771Z,35.80
2018-05-21T19:27:08.145Z,36.00
2018-05-21T19:29:34.555Z,36.20
2018-05-21T19:32:01.772Z,36.00
2018-05-21T19:34:28.425Z,36.00
2018-05-21T19:36:54.846Z,36.20
2018-05-21T19:39:21.260Z,36.30
2018-05-21T19:41:47.787Z,36.30
2018-05-21T19:44:14.297Z,36.30
2018-05-21T19:46:40.728Z,36.10
2018-05-21T19:49:07.420Z,36.00
2018-05-21T19:51:33.878Z,36.20
2018-05-21T19:54:01.179Z,36.40
2018-05-21T19:56:27.658Z,36.40
2018-05-21T19:58:54.093Z,36.40
2018-05-21T20:01:21.152Z,36.40
2018-05-21T20:03:48.258Z,36.70
2018-05-21T20:06:14.611Z,36.70
2018-05-21T20:08:41.075Z,36.60
2018-05-21T20:11:07.593Z,37.30
2018-05-21T20:13:34.329Z,36.80
2018-05-21T20:16:00.763Z,37.00
2018-05-21T20:18:31.744Z,37.30
2018-05-21T20:20:58.286Z,37.10
2018-05-21T20:23:24.746Z,37.40
2018-05-21T20:25:51.178Z,37.70
2018-05-21T20:28:17.650Z,38.00
2018-05-21T20:30:44.203Z,37.80
2018-05-21T20:33:10.513Z,37.60
2018-05-21T20:35:36.940Z,37.70
2018-05-21T20:38:03.587Z,37.70
2018-05-21T20:40:30.015Z,37.80
2018-05-21T20:42:57.450Z,38.30
2018-05-21T20:45:23.893Z,38.20
2018-05-21T20:47:51.266Z,38.50
2018-05-21T20:50:17.794Z,38.50
2018-05-21T20:52:44.459Z,38.60
2018-05-21T20:55:10.939Z,38.80
2018-05-21T20:57:38.222Z,39.50
2018-05-21T21:00:06.559Z,39.40
2018-05-21T21:02:32.968Z,39.40
2018-05-21T21:04:59.483Z,39.80
2018-05-21T21:07:25.896Z,39.60
2018-05-21T21:09:53.185Z,39.80
2018-05-21T21:12:20.156Z,39.70
2018-05-21T21:14:47.582Z,40.00
2018-05-21T21:17:14.020Z,39.80
2018-05-21T21:19:40.770Z,40.40
2018-05-21T21:22:07.349Z,40.90
2018-05-21T21:24:33.784Z,41.30
2018-05-21T21:27:00.915Z,41.80
2018-05-21T21:29:29.072Z,42.10
2018-05-21T21:32:06.815Z,42.10
2018-05-21T21:34:33.460Z,42.60
2018-05-21T21:36:59.930Z,42.90
2018-05-21T21:39:26.364Z,44.40
2018-05-21T21:41:52.984Z,47.60
2018-05-21T21:44:19.609Z,50.70
2018-05-21T21:46:49.502Z,51.30
2018-05-21T21:49:16.003Z,54.30
2018-05-21T21:51:43.258Z,56.60
2018-05-21T21:54:10.049Z,57.00
2018-05-21T21:56:37.314Z,58.30
2018-05-21T21:59:03.857Z,58.20
2018-05-21T22:01:30.188Z,58.40
2018-05-21T22:03:56.492Z,58.60
2018-05-21T22:06:23.002Z,59.80
2018-05-21T22:08:49.389Z,64.50
2018-05-21T22:11:15.929Z,63.40
2018-05-21T22:13:43.157Z,70.30
2018-05-21T22:16:09.591Z,70.30
2018-05-21T22:18:36.829Z,68.00
2018-05-21T22:21:03.423Z,67.90
2018-05-21T22:23:30.658Z,67.10
2018-05-21T22:25:57.049Z,67.00
2018-05-21T22:28:23.382Z,67.30
2018-05-21T22:30:50.760Z,68.20
2018-05-21T22:33:17.339Z,70.50
2018-05-21T22:35:43.693Z,69.50
2018-05-21T22:38:10.088Z,68.50
2018-05-21T22:40:39.723Z,68.50
2018-05-21T22:43:06.111Z,68.50
2018-05-21T22:45:32.522Z,68.10
2018-05-21T22:47:58.934Z,67.50
2018-05-21T22:50:25.295Z,67.50
2018-05-21T22:52:52.411Z,65.90
2018-05-21T22:55:18.827Z,65.80
2018-05-21T22:57:45.151Z,66.80
2018-05-21T23:00:11.503Z,66.00
2018-05-21T23:02:37.876Z,65.80
2018-05-21T23:05:04.250Z,65.40
2018-05-21T23:07:30.594Z,65.20
2018-05-21T23:09:56.931Z,65.60
2018-05-21T23:12:23.288Z,65.90
2018-05-21T23:14:49.686Z,65.80
2018-05-21T23:17:16.067Z,66.20
2018-05-21T23:19:43.169Z,65.90
2018-05-21T23:22:10.670Z,65.90
2018-05-21T23:24:37.002Z,65.70
2018-05-21T23:27:04.084Z,66.50
2018-05-21T23:29:30.418Z,66.40
2018-05-21T23:31:56.722Z,66.20
2018-05-21T23:34:23.121Z,65.40
2018-05-21T23:36:49.524Z,67.10
2018-05-21T23:39:15.817Z,67.50
2018-05-21T23:41:42.993Z,71.20
2018-05-21T23:44:09.419Z,71.10
2018-05-21T23:46:35.977Z,71.80
2018-05-21T23:49:02.323Z,72.00
2018-05-21T23:51:29.484Z,69.80
2018-05-21T23:53:55.862Z,70.70
2018-05-21T23:56:22.260Z,70.90
2018-05-21T23:58:49.460Z,72.50
